Time;durP1;ratioP1;P1;durP2;ratioP2;P2;SDS_P1;SDS_P2;PMS_P1;PMS_P2;Temp;Humidity;BMP_temperature;BMP_pressure;BME280_temperature;BME280_humidity;BME280_pressure;Samples;Min_cycle;Max_cycle;Signal;HPM_P1;HPM_P2
2022/07/04 00:01:42;;;;;;;9.55;2.20;;;;;;;16.99;59.52;101562.22;5096818;28;20044;-49
2022/07/04 00:04:09;;;;;;;7.97;2.20;;;;;;;17.02;58.21;101559.16;5096279;28;20101;-49
2022/07/04 00:06:36;;;;;;;7.53;1.95;;;;;;;16.87;59.10;101561.75;5096805;28;20048;-50
2022/07/04 00:09:03;;;;;;;8.85;2.10;;;;;;;16.92;58.74;101569.28;5096326;28;20044;-52
2022/07/04 00:11:30;;;;;;;9.82;2.17;;;;;;;16.83;59.21;101562.31;5096649;28;20040;-53
2022/07/04 00:13:56;;;;;;;7.85;1.88;;;;;;;16.79;59.55;101560.94;5096780;28;20056;-49
2022/07/04 00:16:23;;;;;;;6.68;2.03;;;;;;;16.78;59.59;101567.31;5096459;28;20036;-50
2022/07/04 00:18:49;;;;;;;10.55;2.20;;;;;;;16.70;60.07;101568.19;5096662;28;20043;-52
2022/07/04 00:21:16;;;;;;;9.55;2.08;;;;;;;16.75;59.58;101573.00;5096267;28;20044;-53
2022/07/04 00:23:43;;;;;;;6.82;1.83;;;;;;;16.78;59.68;101562.78;5094780;28;20040;-52
2022/07/04 00:26:10;;;;;;;7.80;2.05;;;;;;;16.68;60.28;101559.47;5096523;28;20051;-52
2022/07/04 00:28:37;;;;;;;10.98;2.30;;;;;;;16.67;59.92;101561.31;5096466;28;20074;-52
2022/07/04 00:31:03;;;;;;;10.50;2.33;;;;;;;16.70;59.41;101555.63;5095750;28;20406;-54
2022/07/04 00:33:30;;;;;;;7.43;1.85;;;;;;;16.66;59.08;101564.16;5094277;28;20120;-53
2022/07/04 00:35:57;;;;;;;12.18;2.05;;;;;;;16.62;60.29;101560.19;5095969;28;20043;-53
2022/07/04 00:38:25;;;;;;;7.63;2.40;;;;;;;16.56;60.73;101569.75;5095065;28;20055;-49
2022/07/04 00:40:52;;;;;;;8.93;2.00;;;;;;;16.47;60.98;101554.72;5095886;28;20044;-52
2022/07/04 00:43:24;;;;;;;9.75;2.40;;;;;;;16.36;60.80;101550.56;5095569;28;20040;-52
2022/07/04 00:45:51;;;;;;;8.98;2.17;;;;;;;16.54;60.97;101544.97;5095947;28;20040;-49
2022/07/04 00:48:18;;;;;;;5.95;2.10;;;;;;;16.41;60.65;101547.34;5095952;28;20044;-52
2022/07/04 00:50:46;;;;;;;7.53;2.33;;;;;;;16.43;61.29;101537.34;5094595;28;20074;-51
2022/07/04 00:53:15;;;;;;;7.53;2.17;;;;;;;16.48;60.89;101538.50;5094614;28;20048;-49
2022/07/04 00:55:42;;;;;;;9.55;2.40;;;;;;;16.49;60.64;101544.66;5095840;28;20048;-52
2022/07/04 00:58:12;;;;;;;11.27;2.55;;;;;;;16.50;60.73;101539.16;5095804;28;20055;-50
2022/07/04 01:00:39;;;;;;;7.90;2.42;;;;;;;16.36;61.14;101542.53;5095180;28;20078;-50
2022/07/04 01:03:05;;;;;;;7.78;2.47;;;;;;;16.36;61.69;101539.88;5095459;28;20060;-51
2022/07/04 01:05:32;;;;;;;10.30;2.47;;;;;;;16.30;62.30;101541.38;5083580;28;20482;-55
2022/07/04 01:07:59;;;;;;;9.52;2.60;;;;;;;16.18;62.25;101531.22;5075529;28;20608;-52
2022/07/04 01:10:26;;;;;;;7.55;2.55;;;;;;;16.22;62.21;101535.22;5074786;28;20120;-53
2022/07/04 01:12:54;;;;;;;12.77;3.30;;;;;;;16.36;61.73;101537.19;5074990;28;20363;-51
2022/07/04 01:15:20;;;;;;;12.15;2.60;;;;;;;16.29;62.14;101544.22;5074914;28;20040;-48
2022/07/04 01:17:47;;;;;;;9.40;2.60;;;;;;;16.19;62.93;101540.91;5075397;28;20048;-50
2022/07/04 01:20:15;;;;;;;10.15;2.80;;;;;;;16.15;63.20;101532.38;5074931;28;20124;-51
2022/07/04 01:22:42;;;;;;;9.23;2.80;;;;;;;16.17;62.76;101538.44;5075201;28;20045;-49
2022/07/04 01:25:09;;;;;;;11.38;3.08;;;;;;;16.01;63.26;101531.25;5074866;28;20070;-52
2022/07/04 01:27:36;;;;;;;9.73;2.90;;;;;;;16.11;63.06;101533.75;5075012;28;20048;-50
2022/07/04 01:30:03;;;;;;;9.75;3.30;;;;;;;16.19;62.91;101535.56;5074813;28;20612;-53
2022/07/04 01:32:30;;;;;;;12.77;3.00;;;;;;;16.09;63.16;101535.75;5073452;28;20090;-49
2022/07/04 01:34:56;;;;;;;10.75;3.30;;;;;;;16.10;63.10;101540.94;5074087;28;20093;-52
2022/07/04 01:37:23;;;;;;;13.18;3.15;;;;;;;16.10;63.54;101540.13;5074730;28;20044;-51
2022/07/04 01:39:50;;;;;;;11.20;2.90;;;;;;;16.02;63.92;101535.59;5074485;28;20368;-52
2022/07/04 01:42:17;;;;;;;11.40;3.03;;;;;;;15.98;64.30;101536.94;5074688;28;20045;-51
2022/07/04 01:44:44;;;;;;;13.63;3.28;;;;;;;15.93;64.79;101529.44;5074673;28;20056;-52
2022/07/04 01:47:11;;;;;;;14.13;3.03;;;;;;;15.88;65.34;101529.13;5074479;28;20071;-53
2022/07/04 01:49:38;;;;;;;10.93;3.22;;;;;;;15.91;65.31;101531.44;5074090;28;20044;-52
2022/07/04 01:52:05;;;;;;;12.15;3.00;;;;;;;15.83;65.65;101538.66;5074479;28;20044;-52
2022/07/04 01:54:31;;;;;;;9.32;2.80;;;;;;;15.96;64.67;101538.13;5076143;28;20068;-51
2022/07/04 01:56:58;;;;;;;12.38;3.05;;;;;;;15.98;64.14;101538.81;5093581;28;20050;-50
2022/07/04 02:01:29;;;;;;;14.73;3.17;;;;;;;15.91;64.94;101530.59;5094605;28;20051;-49
2022/07/04 02:02:11;;;;;;;10.05;3.03;;;;;;;15.80;65.88;101533.63;5094230;28;20419;-51
2022/07/04 02:04:38;;;;;;;13.10;3.45;;;;;;;15.80;65.17;101545.16;5093974;28;20535;-51
2022/07/04 02:07:05;;;;;;;11.25;3.30;;;;;;;15.87;64.94;101540.00;5094500;28;20055;-52
2022/07/04 02:09:31;;;;;;;12.70;3.70;;;;;;;15.79;65.19;101550.69;5093890;28;20052;-52
2022/07/04 02:14:45;;;;;;;11.48;3.53;;;;;;;15.70;65.46;101556.03;5093028;28;20050;-52
2022/07/04 02:17:12;;;;;;;12.40;3.72;;;;;;;15.69;65.78;101551.66;5094233;28;20048;-54
2022/07/04 02:19:38;;;;;;;12.45;3.80;;;;;;;15.61;66.97;101558.84;5093130;28;20127;-52
2022/07/04 02:22:05;;;;;;;12.35;3.13;;;;;;;15.59;66.82;101561.72;5094343;28;20040;-53
2022/07/04 02:24:32;;;;;;;12.27;3.90;;;;;;;15.63;66.57;101555.03;5093802;28;20052;-52
2022/07/04 02:26:59;;;;;;;10.40;3.40;;;;;;;15.55;66.66;101550.50;5094079;28;20048;-52
2022/07/04 02:29:27;;;;;;;9.35;3.35;;;;;;;15.59;66.94;101561.72;5092727;28;20052;-52
2022/07/04 02:31:53;;;;;;;11.45;3.28;;;;;;;15.56;66.72;101562.03;5092950;28;20072;-50
2022/07/04 02:34:20;;;;;;;11.05;3.45;;;;;;;15.64;66.48;101566.53;5093813;28;20137;-48
2022/07/04 02:36:47;;;;;;;10.05;3.50;;;;;;;15.61;67.39;101570.41;5093682;28;20071;-51
2022/07/04 02:39:14;;;;;;;10.50;3.70;;;;;;;15.58;67.21;101561.88;5093784;28;20097;-50
2022/07/04 02:41:40;;;;;;;12.05;3.85;;;;;;;15.48;67.41;101570.91;5093865;28;20066;-49
2022/07/04 02:44:07;;;;;;;13.02;4.43;;;;;;;15.36;68.02;101566.88;5093572;28;20444;-51
2022/07/04 02:46:34;;;;;;;13.75;6.35;;;;;;;15.24;68.54;101566.34;5093806;28;20067;-49
2022/07/04 02:49:01;;;;;;;16.02;5.72;;;;;;;15.24;68.88;101563.66;5093679;28;20122;-51
2022/07/04 02:51:29;;;;;;;14.43;5.55;;;;;;;15.09;69.61;101562.66;5093850;28;20102;-49
2022/07/04 02:53:56;;;;;;;17.35;5.45;;;;;;;15.11;69.28;101569.50;5093752;28;20047;-49
2022/07/04 02:56:23;;;;;;;14.00;5.13;;;;;;;15.21;68.67;101582.72;5093653;28;20048;-50
2022/07/04 02:58:50;;;;;;;10.27;4.47;;;;;;;15.32;68.40;101586.91;5092552;28;20052;-48
2022/07/04 03:01:19;;;;;;;11.73;4.65;;;;;;;15.27;68.67;101581.22;5093638;28;20071;-50
2022/07/04 03:03:47;;;;;;;13.85;4.72;;;;;;;15.16;68.94;101582.38;5091983;28;20040;-51
2022/07/04 03:06:14;;;;;;;14.90;4.50;;;;;;;15.26;69.38;101582.22;5083474;28;20049;-50
2022/07/04 03:08:41;;;;;;;17.13;4.13;;;;;;;15.24;68.73;101586.91;5073299;28;20045;-49
2022/07/04 03:11:08;;;;;;;14.85;4.30;;;;;;;15.22;69.02;101595.06;5072158;28;20044;-49
2022/07/04 03:13:36;;;;;;;10.80;3.97;;;;;;;15.17;68.89;101602.75;5072846;28;20459;-49
2022/07/04 03:16:03;;;;;;;15.15;3.95;;;;;;;14.87;70.12;101605.00;5073072;28;20066;-49
2022/07/04 03:18:30;;;;;;;15.63;4.15;;;;;;;15.03;69.70;101606.88;5073254;28;20041;-50
2022/07/04 03:20:57;;;;;;;10.68;4.13;;;;;;;15.00;69.24;101606.38;5073166;28;20105;-48
2022/07/04 03:23:23;;;;;;;12.80;3.83;;;;;;;15.02;69.43;101610.56;5073188;28;20048;-49
2022/07/04 03:25:50;;;;;;;12.23;4.00;;;;;;;15.05;69.50;101612.06;5073121;28;20052;-50
2022/07/04 03:28:18;;;;;;;10.07;4.07;;;;;;;15.01;69.77;101616.06;5072966;28;20040;-51
2022/07/04 03:30:44;;;;;;;12.40;4.10;;;;;;;14.89;70.28;101616.34;5073101;28;20053;-52
2022/07/04 03:33:11;;;;;;;12.93;4.20;;;;;;;14.87;70.00;101609.50;5072396;28;20033;-50
2022/07/04 03:35:38;;;;;;;12.02;3.80;;;;;;;14.84;70.45;101618.66;5071904;28;20055;-50
2022/07/04 03:38:05;;;;;;;13.50;4.15;;;;;;;14.90;70.57;101623.38;5072985;28;20040;-49
2022/07/04 03:40:35;;;;;;;10.95;4.03;;;;;;;14.89;70.99;101618.19;5073470;28;20053;-48
2022/07/04 03:43:03;;;;;;;10.35;3.78;;;;;;;14.84;71.12;101618.66;5073014;28;20094;-49
2022/07/04 03:45:29;;;;;;;11.02;3.58;;;;;;;14.82;71.48;101625.16;5072688;28;20427;-48
2022/07/04 03:47:56;;;;;;;12.20;3.72;;;;;;;14.71;72.28;101623.63;5072857;28;20090;-49
2022/07/04 03:50:23;;;;;;;14.30;4.50;;;;;;;14.70;72.37;101620.13;5072691;28;20439;-50
2022/07/04 03:52:50;;;;;;;17.80;5.20;;;;;;;14.74;72.18;101620.63;5072860;28;20098;-50
2022/07/04 03:55:17;;;;;;;11.57;4.88;;;;;;;14.61;72.82;101617.56;5081926;28;20040;-49
2022/07/04 03:57:43;;;;;;;14.30;4.60;;;;;;;14.61;72.93;101621.09;5092758;28;20059;-48
2022/07/04 04:00:11;;;;;;;15.52;4.05;;;;;;;14.64;72.99;101620.75;5093038;28;20044;-51
2022/07/04 04:02:40;;;;;;;13.07;3.95;;;;;;;14.65;72.01;101619.75;5092673;28;20398;-51
2022/07/04 04:05:26;;;;;;;15.00;3.70;;;;;;;14.70;72.07;101619.28;5092150;28;20520;-50
2022/07/04 04:07:55;;;;;;;9.80;4.32;;;;;;;14.70;71.54;101621.97;5092946;28;20390;-50
2022/07/04 04:10:24;;;;;;;14.30;4.28;;;;;;;14.62;71.86;101624.56;5092460;28;20056;-49
2022/07/04 04:12:50;;;;;;;11.02;4.32;;;;;;;14.66;71.50;101616.09;5092744;28;20398;-50
2022/07/04 04:15:18;;;;;;;11.80;4.20;;;;;;;14.64;71.79;101620.75;5093110;28;20067;-49
2022/07/04 04:17:45;;;;;;;14.32;4.40;;;;;;;14.60;71.80;101622.06;5094413;28;20117;-52
2022/07/04 04:20:11;;;;;;;11.63;3.97;;;;;;;14.66;71.30;101625.94;5096353;28;20036;-49
2022/07/04 04:22:38;;;;;;;12.82;4.38;;;;;;;14.63;72.10;101626.25;5096603;28;20071;-50
2022/07/04 04:25:05;;;;;;;13.63;4.35;;;;;;;14.64;72.56;101627.91;5095986;28;20122;-51
2022/07/04 04:27:32;;;;;;;8.82;3.80;;;;;;;14.64;72.15;101628.75;5096028;28;20063;-50
2022/07/04 04:29:59;;;;;;;14.50;4.00;;;;;;;14.67;71.30;101628.44;5095998;28;20075;-49
2022/07/04 04:32:26;;;;;;;14.60;4.22;;;;;;;14.70;71.88;101625.47;5095658;28;20044;-50
2022/07/04 04:34:53;;;;;;;13.52;4.32;;;;;;;14.74;72.18;101626.81;5096131;28;20044;-51
2022/07/04 04:37:20;;;;;;;10.60;3.95;;;;;;;14.65;72.13;101629.59;5096061;28;20059;-49
2022/07/04 04:39:47;;;;;;;13.68;5.40;;;;;;;14.64;71.80;101636.75;5094751;28;20087;-51
2022/07/04 04:42:13;;;;;;;14.23;5.03;;;;;;;14.70;72.05;101635.31;5095011;28;20080;-49
2022/07/04 04:44:40;;;;;;;16.10;4.97;;;;;;;14.72;71.28;101634.16;5095969;28;20486;-52
2022/07/04 04:47:07;;;;;;;14.48;4.60;;;;;;;14.78;71.28;101633.50;5095810;28;20047;-48
2022/07/04 04:49:33;;;;;;;12.65;4.32;;;;;;;14.82;71.21;101634.00;5095537;28;20071;-52
2022/07/04 04:52:00;;;;;;;14.00;4.45;;;;;;;14.84;71.40;101637.34;5095707;28;20093;-50
2022/07/04 04:54:27;;;;;;;15.45;4.93;;;;;;;14.89;71.30;101645.72;5095845;28;20068;-49
2022/07/04 04:56:53;;;;;;;12.45;4.15;;;;;;;14.95;71.02;101654.94;5095618;28;20143;-51
2022/07/04 04:59:20;;;;;;;12.80;4.43;;;;;;;14.94;70.90;101655.94;5094486;28;20132;-51
2022/07/04 05:01:47;;;;;;;21.23;5.35;;;;;;;14.88;70.92;101660.09;5095411;28;20043;-51
2022/07/04 05:04:14;;;;;;;15.63;4.65;;;;;;;15.02;71.10;101665.84;5095012;28;20036;-52
2022/07/04 05:06:41;;;;;;;22.25;4.95;;;;;;;15.19;70.75;101656.03;5089095;28;20040;-50
2022/07/04 05:09:08;;;;;;;15.23;4.95;;;;;;;15.21;70.50;101654.03;5074838;28;20070;-53
2022/07/04 05:11:35;;;;;;;14.75;5.05;;;;;;;15.34;70.24;101655.25;5075433;28;20051;-49
2022/07/04 05:14:02;;;;;;;13.85;4.60;;;;;;;15.28;70.58;101644.34;5075145;28;20044;-50
2022/07/04 05:16:29;;;;;;;14.30;4.40;;;;;;;15.27;70.72;101640.84;5075208;28;20045;-53
2022/07/04 05:18:55;;;;;;;15.15;5.03;;;;;;;15.46;70.47;101644.25;5075179;28;20045;-52
2022/07/04 05:21:22;;;;;;;16.98;5.03;;;;;;;15.44;70.28;101643.56;5074928;28;20060;-50
2022/07/04 05:23:48;;;;;;;15.38;5.18;;;;;;;15.46;70.29;101655.78;5074969;28;20041;-50
2022/07/04 05:26:15;;;;;;;15.50;4.60;;;;;;;15.44;70.72;101656.94;5074810;28;20045;-49
2022/07/04 05:28:42;;;;;;;16.75;5.15;;;;;;;15.45;70.54;101650.59;5074844;28;20072;-50
2022/07/04 05:31:09;;;;;;;19.10;4.47;;;;;;;15.44;70.60;101648.91;5074241;28;20048;-51
2022/07/04 05:33:36;;;;;;;15.50;4.60;;;;;;;15.46;70.98;101644.25;5074687;28;20044;-51
2022/07/04 05:36:03;;;;;;;15.27;4.78;;;;;;;15.55;70.72;101645.91;5074773;28;20094;-49
2022/07/04 05:38:29;;;;;;;12.77;4.60;;;;;;;15.49;70.94;101639.41;5074582;28;20044;-50
2022/07/04 05:40:56;;;;;;;15.32;4.82;;;;;;;15.64;70.27;101652.13;5074692;28;20425;-51
2022/07/04 05:43:25;;;;;;;14.90;4.60;;;;;;;15.55;70.22;101649.47;5074662;28;20041;-49
2022/07/04 05:45:51;;;;;;;14.00;4.40;;;;;;;15.56;70.07;101644.94;5073165;28;20045;-50
2022/07/04 05:48:19;;;;;;;19.08;4.63;;;;;;;15.66;69.92;101647.44;5074257;28;20040;-52
2022/07/04 05:50:46;;;;;;;14.10;4.47;;;;;;;15.54;70.78;101644.28;5074281;28;20060;-52
2022/07/04 05:53:13;;;;;;;14.30;4.80;;;;;;;15.71;70.24;101650.47;5074401;28;20068;-52
2022/07/04 05:55:39;;;;;;;14.13;4.50;;;;;;;15.65;70.59;101649.28;5086413;28;20126;-51
2022/07/04 05:58:06;;;;;;;22.25;4.53;;;;;;;15.79;70.92;101650.53;5094537;28;20048;-52
2022/07/04 06:00:32;;;;;;;11.75;4.05;;;;;;;15.85;70.34;101649.84;5094439;28;20520;-49
2022/07/04 06:02:59;;;;;;;13.85;4.55;;;;;;;15.86;70.66;101648.00;5094412;28;20044;-50
2022/07/04 06:05:26;;;;;;;14.93;4.30;;;;;;;15.93;70.60;101641.84;5093704;28;20090;-49
2022/07/04 06:07:53;;;;;;;16.73;4.30;;;;;;;16.01;70.77;101646.34;5094723;28;20508;-52
2022/07/04 06:10:20;;;;;;;16.90;3.90;;;;;;;16.08;70.33;101641.13;5093997;28;20055;-50
2022/07/04 06:12:46;;;;;;;11.85;4.40;;;;;;;16.22;69.41;101640.44;5094317;28;20105;-52
2022/07/04 06:15:15;;;;;;;14.98;4.43;;;;;;;16.19;68.78;101635.44;5094258;28;20048;-49
2022/07/04 06:17:42;;;;;;;14.25;4.47;;;;;;;16.28;68.52;101644.28;5094360;28;20123;-52
2022/07/04 06:20:09;;;;;;;15.10;4.20;;;;;;;16.37;68.19;101640.63;5076628;28;20111;-50
2022/07/04 06:22:42;;;;;;;15.65;4.28;;;;;;;16.41;68.04;101644.63;5094271;28;20439;-49
2022/07/04 06:25:11;;;;;;;16.77;4.22;;;;;;;16.42;68.04;101646.28;5093569;28;20047;-49
2022/07/04 06:27:38;;;;;;;18.13;4.00;;;;;;;16.38;68.85;101646.78;5080091;28;20508;-49
2022/07/04 06:30:07;;;;;;;15.05;3.95;;;;;;;16.42;69.26;101640.09;5083734;28;20607;-49
2022/07/04 06:32:45;;;;;;;11.82;4.00;;;;;;;16.55;66.89;101637.69;5097929;28;20092;-48
2022/07/04 06:37:59;;;;;;;13.10;4.10;;;;;;;16.53;67.25;101641.56;5109234;28;20089;-49
2022/07/04 06:40:26;;;;;;;15.23;4.68;;;;;;;16.58;66.84;101636.53;5098589;28;20032;-48
2022/07/04 06:42:52;;;;;;;13.07;3.80;;;;;;;16.59;65.18;101651.59;5094671;28;20044;-48
2022/07/04 06:45:19;;;;;;;11.50;3.80;;;;;;;16.69;64.42;101642.34;5096111;28;20043;-47
2022/07/04 06:47:46;;;;;;;17.05;3.60;;;;;;;16.72;65.53;101648.38;5105837;28;20118;-48
2022/07/04 06:50:13;;;;;;;12.27;3.40;;;;;;;16.85;64.44;101646.84;5095455;28;20047;-46
2022/07/04 06:52:55;;;;;;;12.95;3.17;;;;;;;16.94;62.05;101655.69;5082925;28;20035;-47
2022/07/04 06:55:22;;;;;;;13.88;3.40;;;;;;;16.93;62.53;101655.88;5093614;28;20040;-48
2022/07/04 06:57:49;;;;;;;11.82;3.22;;;;;;;16.97;63.39;101657.19;5109442;28;20043;-48
2022/07/04 07:00:16;;;;;;;28.85;13.13;;;;;;;17.03;64.62;101656.50;5090770;28;20048;-47
2022/07/04 07:02:42;;;;;;;23.00;9.07;;;;;;;17.06;62.73;101654.31;5101812;28;20044;-45
2022/07/04 07:05:09;;;;;;;11.10;3.05;;;;;;;17.14;63.11;101652.59;5100407;28;20501;-47
2022/07/04 07:07:36;;;;;;;10.57;2.53;;;;;;;17.15;61.18;101641.69;5100222;28;20489;-47
2022/07/04 07:10:03;;;;;;;7.10;2.50;;;;;;;17.21;60.59;101649.03;5087118;28;20191;-46
2022/07/04 07:12:30;;;;;;;11.35;2.50;;;;;;;17.19;61.13;101647.53;5108464;28;20061;-45
2022/07/04 07:14:57;;;;;;;9.70;2.42;;;;;;;17.18;62.00;101644.03;5099492;28;20126;-47
2022/07/04 07:17:24;;;;;;;11.75;2.60;;;;;;;17.34;59.05;101644.97;5097908;28;20055;-47
2022/07/04 07:19:51;;;;;;;12.70;2.50;;;;;;;17.31;58.29;101646.13;5089968;28;20072;-45
2022/07/04 07:22:19;;;;;;;8.52;2.45;;;;;;;17.40;58.92;101645.06;5091317;28;20129;-46
2022/07/04 07:24:46;;;;;;;15.82;2.50;;;;;;;17.31;58.74;101645.31;5094994;28;20035;-48
2022/07/04 07:27:13;;;;;;;7.28;2.00;;;;;;;17.49;58.30;101651.22;5096492;28;20051;-48
2022/07/04 07:29:39;;;;;;;7.88;2.05;;;;;;;17.42;57.41;101643.03;5082929;28;20093;-47
2022/07/04 07:32:07;;;;;;;11.23;2.35;;;;;;;17.39;57.94;101640.72;5065610;28;20126;-47
2022/07/04 07:34:35;;;;;;;7.35;2.17;;;;;;;17.46;57.78;101647.06;5098514;28;20135;-46
2022/07/04 07:37:02;;;;;;;9.10;2.00;;;;;;;17.59;58.18;101645.63;5104682;28;20054;-45
2022/07/04 07:39:29;;;;;;;10.82;2.30;;;;;;;17.55;57.73;101644.31;5096470;28;20043;-45
2022/07/04 07:41:55;;;;;;;10.40;2.30;;;;;;;17.66;57.86;101649.25;5103938;28;20047;-48
2022/07/04 07:44:22;;;;;;;14.93;2.50;;;;;;;17.56;57.60;101646.81;5105965;28;20508;-46
2022/07/04 07:46:49;;;;;;;10.13;2.03;;;;;;;17.56;59.45;101644.13;5089981;28;20036;-48
2022/07/04 07:49:16;;;;;;;9.35;2.10;;;;;;;17.54;57.96;101646.16;5099231;28;20047;-51
2022/07/04 07:51:42;;;;;;;8.88;2.22;;;;;;;17.68;58.30;101644.53;5093523;28;20097;-46
2022/07/04 07:54:09;;;;;;;10.23;2.10;;;;;;;17.61;58.45;101648.97;5111701;28;20040;-48
2022/07/04 07:56:44;;;;;;;12.77;2.13;;;;;;;17.82;57.19;101645.63;5090645;28;20249;-48
2022/07/04 07:59:11;;;;;;;8.43;1.75;;;;;;;17.98;56.90;101652.75;5090933;28;20501;-47
2022/07/04 08:01:38;;;;;;;11.88;2.13;;;;;;;17.92;58.55;101648.94;5105872;28;20040;-46
2022/07/04 08:06:53;;;;;;;12.43;3.03;;;;;;;18.21;56.64;101642.78;5081931;28;20063;-46
2022/07/04 08:09:39;;;;;;;10.00;2.20;;;;;;;18.21;55.38;101655.41;5082508;28;20061;-46
2022/07/04 08:12:07;;;;;;;12.02;2.40;;;;;;;18.32;55.23;101657.63;5103528;28;20039;-46
2022/07/04 08:14:34;;;;;;;9.65;2.00;;;;;;;18.21;55.27;101653.53;5093997;28;20040;-45
2022/07/04 08:17:01;;;;;;;15.27;3.85;;;;;;;18.54;51.23;101652.38;5094751;28;20150;-48
2022/07/04 08:19:28;;;;;;;10.43;1.70;;;;;;;18.64;51.19;101644.03;5111106;28;20053;-49
2022/07/04 08:21:54;;;;;;;6.72;2.03;;;;;;;18.65;52.07;101654.59;5090643;28;20450;-49
2022/07/04 08:24:38;;;;;;;9.27;1.90;;;;;;;18.43;52.87;101650.97;5107048;28;20044;-48
2022/07/04 08:27:04;;;;;;;4.80;1.70;;;;;;;18.56;51.86;101651.16;5106310;28;20051;-47
2022/07/04 08:29:32;;;;;;;8.82;1.95;;;;;;;18.47;51.59;101644.22;5099320;28;20048;-48
2022/07/04 08:31:58;;;;;;;4.90;1.63;;;;;;;18.58;51.48;101654.50;5094022;28;20047;-49
2022/07/04 08:34:25;;;;;;;9.45;1.75;;;;;;;18.72;50.01;101652.84;5108374;28;20029;-46
2022/07/04 08:36:52;;;;;;;5.65;1.50;;;;;;;18.79;49.70;101651.06;5104413;28;20470;-48
2022/07/04 08:39:19;;;;;;;6.63;1.58;;;;;;;18.85;50.75;101654.06;5099406;28;20059;-49
2022/07/04 08:41:46;;;;;;;6.15;1.60;;;;;;;19.00;49.34;101636.06;5102139;28;20159;-49
2022/07/04 08:44:13;;;;;;;10.27;1.67;;;;;;;18.91;49.79;101637.19;5095817;28;20423;-49
2022/07/04 08:46:41;;;;;;;10.50;1.83;;;;;;;18.94;49.08;101634.97;5095198;28;20449;-49
2022/07/04 08:49:17;;;;;;;4.47;1.60;;;;;;;19.09;48.38;101639.47;5102560;28;20120;-47
2022/07/04 08:51:52;;;;;;;5.50;1.50;;;;;;;19.35;47.07;101636.25;5087774;28;20098;-49
2022/07/04 08:59:55;;;;;;;6.85;1.63;;;;;;;19.44;48.96;101623.50;5111040;28;20075;-49
2022/07/04 09:02:23;;;;;;;5.43;1.80;;;;;;;19.42;50.05;101633.63;5098892;28;20043;-48
2022/07/04 09:04:50;;;;;;;7.80;2.00;;;;;;;19.33;50.50;101622.16;5103458;28;20040;-47
2022/07/04 09:07:17;;;;;;;7.40;1.60;;;;;;;19.46;50.37;101616.91;5108361;28;20094;-47
2022/07/04 09:09:44;;;;;;;9.70;1.73;;;;;;;19.61;50.80;101624.09;5097400;28;20056;-48
2022/07/04 09:12:15;;;;;;;14.65;2.20;;;;;;;19.80;50.71;101628.88;5090582;28;20047;-47
2022/07/04 09:14:42;;;;;;;11.57;2.25;;;;;;;20.07;50.09;101624.53;5097366;28;20489;-46
2022/07/04 09:17:09;;;;;;;13.18;5.15;;;;;;;20.35;48.88;101622.84;5102565;28;20577;-47
2022/07/04 09:19:36;;;;;;;14.50;3.70;;;;;;;20.50;49.97;101634.34;5077223;28;20040;-47
2022/07/04 09:22:07;;;;;;;9.23;3.42;;;;;;;20.73;46.53;101628.69;5078654;28;20046;-44
2022/07/04 09:24:45;;;;;;;9.45;2.30;;;;;;;20.62;47.97;101629.25;5089275;28;20032;-51
2022/07/04 09:27:29;;;;;;;9.95;2.00;;;;;;;20.69;46.41;101620.16;5089222;28;20400;-47
2022/07/04 09:29:55;;;;;;;14.00;3.80;;;;;;;20.67;45.39;101630.31;5089224;28;20056;-47
2022/07/04 09:32:40;;;;;;;11.57;2.03;;;;;;;20.69;45.79;101612.09;5105999;28;20066;-49
2022/07/04 09:35:10;;;;;;;6.85;1.88;;;;;;;20.84;45.72;101630.00;5098599;28;20044;-45
2022/07/04 09:37:45;;;;;;;5.40;1.50;;;;;;;20.76;45.22;101620.22;5103163;28;20068;-47
2022/07/04 09:40:33;;;;;;;9.75;2.00;;;;;;;20.74;45.17;101624.13;5113159;28;20039;-49
2022/07/04 09:43:10;;;;;;;8.90;1.90;;;;;;;20.95;44.68;101625.88;5101915;28;20418;-46
2022/07/04 09:45:57;;;;;;;8.50;2.03;;;;;;;21.04;44.86;101613.88;5108301;28;20093;-46
2022/07/04 09:48:24;;;;;;;9.10;1.83;;;;;;;21.02;45.18;101611.38;5102814;28;20080;-46
2022/07/04 09:50:51;;;;;;;10.40;1.83;;;;;;;21.41;47.40;101620.63;5103206;28;20490;-46
2022/07/04 09:53:18;;;;;;;9.32;1.70;;;;;;;21.44;45.08;101620.22;5079568;28;20056;-46
2022/07/04 09:55:46;;;;;;;6.80;1.80;;;;;;;21.48;45.15;101628.75;5075354;28;20440;-44
2022/07/04 09:58:15;;;;;;;8.85;1.85;;;;;;;21.73;44.63;101614.69;5076350;28;20486;-45
2022/07/04 10:00:43;;;;;;;7.07;1.88;;;;;;;21.74;44.09;101614.47;5094190;28;20431;-43
2022/07/04 10:03:32;;;;;;;10.43;1.80;;;;;;;21.96;44.41;101622.38;5100374;28;20036;-46
2022/07/04 10:06:08;;;;;;;9.43;1.92;;;;;;;22.04;43.17;101620.28;5103410;28;20062;-44
2022/07/04 10:08:35;;;;;;;8.68;2.15;;;;;;;22.10;43.29;101621.31;5105406;28;20063;-44
2022/07/04 10:11:04;;;;;;;10.50;1.90;;;;;;;22.09;43.17;101618.84;5083187;28;20084;-45
2022/07/04 10:13:34;;;;;;;8.95;1.80;;;;;;;22.40;43.67;101624.41;5073730;28;20052;-44
2022/07/04 10:16:01;;;;;;;10.90;2.25;;;;;;;22.23;42.29;101623.19;5104326;28;20045;-43
2022/07/04 10:18:28;;;;;;;10.35;1.80;;;;;;;21.98;43.08;101628.41;5106285;28;20044;-44
2022/07/04 10:20:56;;;;;;;10.05;2.00;;;;;;;21.81;44.17;101622.56;5072606;28;20508;-44
2022/07/04 10:23:26;;;;;;;6.07;1.73;;;;;;;21.79;42.24;101614.69;5085207;28;20044;-43
2022/07/04 10:25:54;;;;;;;7.90;1.83;;;;;;;21.87;41.85;101612.81;5088809;28;20071;-44
2022/07/04 10:28:21;;;;;;;10.75;2.22;;;;;;;21.96;42.94;101607.00;5106934;28;20044;-46
2022/07/04 10:30:51;;;;;;;9.60;1.90;;;;;;;22.35;41.27;101612.59;5087775;28;20040;-45
2022/07/04 10:33:23;;;;;;;8.70;1.83;;;;;;;22.50;41.97;101605.03;5104250;28;20054;-46
2022/07/04 10:36:14;;;;;;;13.73;1.90;;;;;;;22.75;42.22;101596.22;5096653;28;20059;-46
2022/07/04 10:38:51;;;;;;;9.30;1.80;;;;;;;22.83;42.16;101590.59;5101287;28;20054;-47
2022/07/04 10:41:21;;;;;;;9.65;1.90;;;;;;;23.33;40.57;101588.03;5103025;28;20051;-47
2022/07/04 10:46:27;;;;;;;8.63;1.83;;;;;;;23.33;40.70;101595.34;5068696;28;20402;-46
2022/07/04 10:48:58;;;;;;;8.52;1.80;;;;;;;23.58;40.87;101598.09;5067437;28;20084;-46
2022/07/04 10:51:54;;;;;;;8.10;1.90;;;;;;;23.34;41.36;101595.13;5068489;28;20103;-48
2022/07/04 10:54:30;;;;;;;13.45;2.05;;;;;;;22.99;41.01;101584.69;5065187;28;20538;-47
2022/07/04 10:57:11;;;;;;;10.38;1.85;;;;;;;22.85;41.30;101585.81;5069747;28;20506;-45
2022/07/04 10:59:39;;;;;;;8.27;1.88;;;;;;;22.69;43.10;101579.00;5070630;28;20055;-47
2022/07/04 11:05:13;;;;;;;8.45;1.98;;;;;;;22.57;41.77;101572.59;5161695;27;20292;-46
2022/07/04 11:18:14;;;;;;;8.45;1.90;;;;;;;23.88;38.94;101552.22;5109199;27;20426;-47
2022/07/04 11:20:43;;;;;;;9.93;2.03;;;;;;;23.61;39.70;101556.19;5099705;28;20060;-47
2022/07/04 11:23:12;;;;;;;7.47;1.70;;;;;;;23.39;39.35;101553.84;5089363;28;20082;-45
2022/07/04 11:25:43;;;;;;;9.15;2.13;;;;;;;23.54;37.46;101550.84;5087664;28;20040;-45
2022/07/04 11:28:33;;;;;;;8.68;1.90;;;;;;;23.60;36.83;101559.94;5086551;28;20047;-47
2022/07/04 11:31:10;;;;;;;11.50;2.30;;;;;;;23.34;36.38;101553.69;5089061;28;20099;-48
2022/07/04 11:33:38;;;;;;;6.43;1.67;;;;;;;23.13;38.86;101554.88;5091332;28;20468;-47
2022/07/04 11:36:09;;;;;;;7.65;1.85;;;;;;;23.37;38.50;101555.94;5096289;28;20493;-46
2022/07/04 11:38:51;;;;;;;7.97;1.70;;;;;;;23.54;38.89;101551.66;5099688;28;20466;-45
2022/07/04 11:49:56;;;;;;;6.95;1.80;;;;;;;24.47;37.48;101533.66;5126116;27;20379;-47
2022/07/04 11:52:25;;;;;;;9.88;1.98;;;;;;;24.53;36.48;101535.47;5116222;28;20050;-48
2022/07/04 11:55:14;;;;;;;10.43;2.10;;;;;;;24.81;36.38;101544.94;5115820;28;20378;-48
2022/07/04 11:57:43;;;;;;;8.60;2.10;;;;;;;24.46;35.93;101548.25;5126296;28;20085;-49
2022/07/04 12:00:14;;;;;;;7.50;2.20;;;;;;;24.23;36.06;101537.25;5113786;28;20503;-49
2022/07/04 12:02:44;;;;;;;11.15;2.00;;;;;;;24.40;37.56;101523.94;5126156;28;20043;-48
2022/07/04 12:05:12;;;;;;;8.63;1.90;;;;;;;24.24;38.51;101530.81;5115230;27;20406;-46